Terminal Aerodrome Forecast
Issued by NWS Bismarck, ND

Home | Current Version | Previous Version | Text Only | Print | Product List | Glossary On
Versions: 1 2 3 4 5 6 7 8 9 10 11 12 13 14 15 16 17 18 19 20 21 22 23
447
FTUS43 KBIS 260528
TAFBIS
TAF
KBIS 260528Z 2606/2706 21004KT P6SM SCT090
     FM261600 20009KT P6SM SCT080 SCT120
     FM261900 20012KT P6SM SCT060 BKN080 OVC100
     FM270000 17011KT P6SM BKN060 OVC080=

USA.gov is the U.S. government's official web portal to all federal, state and local government web resources and services.